Time;durP1;ratioP1;P1;durP2;ratioP2;P2;SDS_P1;SDS_P2;PMS_P1;PMS_P2;Temp;Humidity;BMP_temperature;BMP_pressure;BME280_temperature;BME280_humidity;BME280_pressure;Samples;Min_cycle;Max_cycle;Signal;HPM_P1;HPM_P2
2021/04/07 00:00:23;;;;;;;1999.90;999.90;;;1.80;88.50;;;;;;5066856;28;20480;-71
2021/04/07 00:02:50;;;;;;;1999.90;999.90;;;1.80;88.90;;;;;;5069699;28;20122;-71
2021/04/07 00:05:20;;;;;;;1999.90;999.90;;;1.70;90.40;;;;;;5064890;28;20049;-71
2021/04/07 00:07:49;;;;;;;1999.90;999.90;;;1.70;91.10;;;;;;5067409;28;20560;-71
2021/04/07 00:10:17;;;;;;;1999.90;999.90;;;1.60;90.60;;;;;;5070080;28;20075;-71
2021/04/07 00:12:43;;;;;;;1999.90;999.90;;;1.60;90.70;;;;;;5069088;28;20512;-71
2021/04/07 00:15:17;;;;;;;1999.90;999.90;;;1.60;89.90;;;;;;5066820;28;20055;-71
2021/04/07 00:17:43;;;;;;;1999.90;999.90;;;1.60;89.30;;;;;;5068514;28;20047;-71
2021/04/07 00:20:13;;;;;;;1999.90;999.90;;;1.50;88.80;;;;;;5069237;28;20539;-71
2021/04/07 00:22:40;;;;;;;1999.90;999.90;;;1.50;90.30;;;;;;5050191;28;537025;-71
2021/04/07 00:25:07;;;;;;;1999.90;999.90;;;1.50;89.00;;;;;;5070897;28;20070;-73
2021/04/07 00:27:36;;;;;;;1999.90;999.90;;;1.50;89.00;;;;;;5066132;28;20066;-71
2021/04/07 00:30:04;;;;;;;1999.90;999.90;;;1.50;88.70;;;;;;5070742;28;20058;-71
2021/04/07 00:32:31;;;;;;;1999.90;999.90;;;1.50;88.60;;;;;;5067736;28;20156;-71
2021/04/07 00:34:58;;;;;;;1999.90;999.90;;;1.50;88.30;;;;;;5070613;28;20186;-71
2021/04/07 00:37:24;;;;;;;1999.90;999.90;;;1.50;89.20;;;;;;5065361;28;20091;-71
2021/04/07 00:39:51;;;;;;;1999.90;999.90;;;1.50;91.80;;;;;;5069598;28;20051;-71
2021/04/07 00:42:17;;;;;;;1999.90;999.90;;;1.50;90.10;;;;;;5068677;28;20534;-71
2021/04/07 00:44:44;;;;;;;1999.90;999.90;;;1.50;89.80;;;;;;5065503;28;20048;-71
2021/04/07 00:47:14;;;;;;;1999.90;999.90;;;1.50;90.00;;;;;;5068274;28;20048;-71
2021/04/07 00:49:41;;;;;;;1999.90;999.90;;;1.50;88.80;;;;;;5071038;28;20052;-72
2021/04/07 00:52:07;;;;;;;1999.90;999.90;;;1.50;89.00;;;;;;5069202;28;20044;-71
2021/04/07 00:54:34;;;;;;;1999.90;999.90;;;1.50;88.40;;;;;;5069047;28;20044;-71
2021/04/07 00:57:01;;;;;;;1999.90;999.90;;;1.50;88.60;;;;;;5067792;28;20444;-71
2021/04/07 00:59:27;;;;;;;1999.90;999.90;;;1.60;88.80;;;;;;5071155;28;20396;-71
2021/04/07 01:01:55;;;;;;;1999.90;999.90;;;1.60;89.00;;;;;;5068101;28;20093;-71
2021/04/07 01:04:24;;;;;;;1999.90;999.90;;;1.70;88.50;;;;;;5067307;28;20060;-71
2021/04/07 01:06:51;;;;;;;1999.90;999.90;;;1.70;88.50;;;;;;5067016;28;20068;-71
2021/04/07 01:09:17;;;;;;;1999.90;999.90;;;1.70;88.50;;;;;;5070678;28;20457;-71
2021/04/07 01:11:44;;;;;;;1999.90;999.90;;;1.80;88.50;;;;;;5068214;28;20055;-72
2021/04/07 01:14:11;;;;;;;1999.90;999.90;;;1.80;88.30;;;;;;5069839;28;20128;-71
2021/04/07 01:16:38;;;;;;;1999.90;999.90;;;1.90;88.30;;;;;;5067526;28;20071;-71
2021/04/07 01:19:08;;;;;;;1999.90;999.90;;;1.90;88.50;;;;;;5070381;28;20053;-71
2021/04/07 01:21:36;;;;;;;1999.90;999.90;;;1.90;88.60;;;;;;5069971;28;20052;-71
2021/04/07 01:24:04;;;;;;;1999.90;999.90;;;1.90;89.50;;;;;;5067744;28;20037;-71
2021/04/07 01:26:31;;;;;;;1999.90;999.90;;;1.90;89.20;;;;;;5069156;28;20147;-71
2021/04/07 01:28:57;;;;;;;1999.90;999.90;;;1.90;89.30;;;;;;5069367;28;20051;-71
2021/04/07 01:31:23;;;;;;;1999.90;999.90;;;1.80;89.70;;;;;;5070390;28;20049;-71
2021/04/07 01:33:50;;;;;;;1999.90;999.90;;;1.80;89.90;;;;;;5068606;28;20051;-71
2021/04/07 01:36:16;;;;;;;1999.90;999.90;;;1.80;90.10;;;;;;5068699;28;20043;-71
2021/04/07 01:38:42;;;;;;;1999.90;999.90;;;1.70;89.90;;;;;;5070612;28;20063;-71
2021/04/07 01:41:09;;;;;;;1999.90;999.90;;;1.70;90.40;;;;;;5067691;28;20049;-71
2021/04/07 01:43:36;;;;;;;1999.90;999.90;;;1.70;90.50;;;;;;5068131;28;20043;-71
2021/04/07 01:46:03;;;;;;;1999.90;999.90;;;1.70;90.20;;;;;;5067379;28;20090;-71
2021/04/07 01:48:30;;;;;;;1999.90;999.90;;;1.70;90.30;;;;;;5069156;28;20052;-71
2021/04/07 01:50:57;;;;;;;1999.90;999.90;;;1.60;90.80;;;;;;5069541;28;20072;-71
2021/04/07 01:53:23;;;;;;;1999.90;999.90;;;1.60;90.60;;;;;;5069109;28;20043;-71
2021/04/07 01:55:49;;;;;;;1999.90;999.90;;;1.60;90.40;;;;;;5068073;28;20044;-71
2021/04/07 01:58:34;;;;;;;1999.90;999.90;;;1.60;91.00;;;;;;5067694;28;20045;-71
2021/04/07 02:01:01;;;;;;;1999.90;999.90;;;1.50;91.10;;;;;;5068039;28;20120;-71
2021/04/07 02:03:27;;;;;;;1999.90;999.90;;;1.50;91.40;;;;;;5069649;28;20044;-71
2021/04/07 02:05:53;;;;;;;1999.90;999.90;;;1.50;91.80;;;;;;5068316;28;20045;-71
2021/04/07 02:08:19;;;;;;;1999.90;999.90;;;1.40;91.10;;;;;;5067164;28;20466;-71
2021/04/07 02:10:46;;;;;;;1999.90;999.90;;;1.40;91.50;;;;;;5068707;28;20052;-71
2021/04/07 02:13:15;;;;;;;1999.90;999.90;;;1.30;91.00;;;;;;5067330;28;20076;-71
2021/04/07 02:15:41;;;;;;;1999.90;999.90;;;1.30;91.40;;;;;;5070998;28;20059;-71
2021/04/07 02:18:07;;;;;;;1999.90;999.90;;;1.30;90.90;;;;;;5069440;28;20068;-72
2021/04/07 02:20:33;;;;;;;1999.90;999.90;;;1.30;91.60;;;;;;5069064;28;20688;-71
2021/04/07 02:22:59;;;;;;;1999.90;999.90;;;1.40;92.30;;;;;;5066669;28;20066;-71
2021/04/07 02:25:26;;;;;;;1999.90;999.90;;;1.40;91.60;;;;;;5068781;28;20135;-71
2021/04/07 02:27:52;;;;;;;1999.90;999.90;;;1.30;92.60;;;;;;5067843;28;20051;-70
2021/04/07 02:30:18;;;;;;;1999.90;999.90;;;1.40;93.10;;;;;;5068966;28;20083;-70
2021/04/07 02:32:45;;;;;;;1999.90;999.90;;;1.30;93.40;;;;;;5068184;28;20055;-70
2021/04/07 02:35:12;;;;;;;1999.90;999.90;;;1.40;92.80;;;;;;5068294;28;20049;-71
2021/04/07 02:37:38;;;;;;;1999.90;999.90;;;1.40;93.00;;;;;;5068015;28;20136;-71
2021/04/07 02:40:07;;;;;;;1999.90;999.90;;;1.40;93.00;;;;;;5073413;28;20135;-71
2021/04/07 02:42:33;;;;;;;1999.90;999.90;;;1.40;92.60;;;;;;5067631;28;20472;-70
2021/04/07 02:44:59;;;;;;;1999.90;999.90;;;1.40;93.00;;;;;;5069604;28;20135;-70
2021/04/07 02:47:25;;;;;;;1999.90;999.90;;;1.40;92.40;;;;;;5067521;28;20127;-70
2021/04/07 02:49:52;;;;;;;1999.90;999.90;;;1.40;92.30;;;;;;5067720;28;20037;-70
2021/04/07 02:52:19;;;;;;;1999.90;999.90;;;1.40;91.80;;;;;;5065336;28;20102;-71
2021/04/07 02:54:46;;;;;;;1999.90;999.90;;;1.50;91.50;;;;;;5066203;28;20407;-71
2021/04/07 02:57:12;;;;;;;1999.90;999.90;;;1.50;91.90;;;;;;5066368;28;20051;-70
2021/04/07 02:59:38;;;;;;;1999.90;999.90;;;1.50;91.70;;;;;;5068239;28;20106;-70
2021/04/07 03:02:06;;;;;;;1999.90;999.90;;;1.50;91.80;;;;;;5071266;28;20439;-70
2021/04/07 03:04:33;;;;;;;1999.90;999.90;;;1.50;92.60;;;;;;5072468;28;20667;-70
2021/04/07 03:07:00;;;;;;;1999.90;999.90;;;1.50;93.10;;;;;;5068608;28;20067;-70
2021/04/07 03:09:26;;;;;;;1999.90;999.90;;;1.50;93.90;;;;;;5072162;28;20049;-71
2021/04/07 03:11:52;;;;;;;1999.90;999.90;;;1.40;95.40;;;;;;5071391;28;20048;-71
2021/04/07 03:14:18;;;;;;;1999.90;999.90;;;1.50;95.30;;;;;;5070919;28;20566;-71
2021/04/07 03:16:45;;;;;;;1999.90;999.90;;;1.50;95.90;;;;;;5070629;28;20192;-70
2021/04/07 03:19:11;;;;;;;1999.90;999.90;;;1.50;96.40;;;;;;5071525;28;20049;-71
2021/04/07 03:21:37;;;;;;;1999.90;999.90;;;1.50;97.30;;;;;;5071874;28;20140;-70
2021/04/07 03:24:04;;;;;;;1999.90;999.90;;;1.50;96.20;;;;;;5068070;28;20510;-70
2021/04/07 03:26:31;;;;;;;1999.90;999.90;;;1.40;97.10;;;;;;5057659;28;20059;-70
2021/04/07 03:28:57;;;;;;;1999.90;999.90;;;1.40;98.20;;;;;;5064227;28;20059;-70
2021/04/07 03:31:24;;;;;;;1999.90;999.90;;;1.30;96.20;;;;;;5065098;28;20759;-70
2021/04/07 03:33:50;;;;;;;1999.90;999.90;;;1.30;95.40;;;;;;5065281;28;20051;-70
2021/04/07 03:36:16;;;;;;;1999.90;999.90;;;1.20;95.40;;;;;;5063894;28;20046;-70
2021/04/07 03:38:42;;;;;;;1999.90;999.90;;;1.20;97.70;;;;;;5065173;28;20051;-70
2021/04/07 03:41:09;;;;;;;1999.90;999.90;;;1.20;96.60;;;;;;5062361;28;20044;-70
2021/04/07 03:43:35;;;;;;;1999.90;999.90;;;1.20;96.60;;;;;;5061894;28;20053;-70
2021/04/07 03:46:02;;;;;;;1999.90;999.90;;;1.20;96.50;;;;;;5061371;28;20041;-70
2021/04/07 03:48:30;;;;;;;1999.90;999.90;;;1.20;97.30;;;;;;5063525;28;20059;-70
2021/04/07 03:50:58;;;;;;;1999.90;999.90;;;1.20;97.40;;;;;;5065463;28;20072;-70
2021/04/07 03:53:25;;;;;;;1999.90;999.90;;;1.20;97.60;;;;;;5065089;28;20058;-70
2021/04/07 03:55:52;;;;;;;1999.90;999.90;;;1.20;98.50;;;;;;5059385;28;20036;-71
2021/04/07 03:58:19;;;;;;;1999.90;999.90;;;1.20;98.90;;;;;;5062879;28;20135;-71
2021/04/07 04:00:46;;;;;;;1999.90;999.90;;;1.20;99.90;;;;;;5059934;28;20071;-71
2021/04/07 04:03:12;;;;;;;1999.90;999.90;;;1.20;99.90;;;;;;5062141;28;20476;-71
2021/04/07 04:05:39;;;;;;;1999.90;999.90;;;1.10;99.50;;;;;;5062879;28;20059;-70
2021/04/07 04:08:06;;;;;;;1999.90;999.90;;;1.10;99.50;;;;;;5064695;28;20415;-70
2021/04/07 04:10:33;;;;;;;1999.90;999.90;;;1.10;99.90;;;;;;5064006;28;20075;-70
2021/04/07 04:13:01;;;;;;;1999.90;999.90;;;1.10;99.90;;;;;;5061546;28;20393;-70
2021/04/07 04:15:27;;;;;;;1999.90;999.90;;;1.10;99.90;;;;;;5062533;28;20067;-70
2021/04/07 04:17:53;;;;;;;1999.90;999.90;;;1.10;99.90;;;;;;5062007;28;20139;-70
2021/04/07 04:20:20;;;;;;;1999.90;999.90;;;1.00;99.90;;;;;;5060845;28;20085;-70
2021/04/07 04:22:46;;;;;;;1999.90;999.90;;;1.00;99.90;;;;;;5061252;28;20164;-70
2021/04/07 04:25:17;;;;;;;1999.90;999.90;;;1.10;99.90;;;;;;5059775;28;20052;-70
2021/04/07 04:27:43;;;;;;;1999.90;999.90;;;1.00;99.90;;;;;;5062682;28;20049;-69
2021/04/07 04:30:12;;;;;;;1999.90;999.90;;;1.00;99.90;;;;;;5064489;28;20050;-69
2021/04/07 04:32:39;;;;;;;1999.90;999.90;;;1.00;99.90;;;;;;5063842;28;20506;-69
2021/04/07 04:35:07;;;;;;;1999.90;999.90;;;1.00;99.90;;;;;;5066869;28;20186;-69
2021/04/07 04:37:33;;;;;;;1999.90;999.90;;;1.00;99.90;;;;;;5062733;28;20536;-69
2021/04/07 04:39:59;;;;;;;1999.90;999.90;;;1.00;99.90;;;;;;5069267;28;20129;-69
2021/04/07 04:42:26;;;;;;;1999.90;999.90;;;0.90;99.90;;;;;;5058984;28;20040;-69
2021/04/07 04:44:52;;;;;;;1999.90;999.90;;;0.90;99.90;;;;;;5063311;28;20047;-69
2021/04/07 04:47:19;;;;;;;1999.90;999.90;;;0.90;99.90;;;;;;5058087;28;20055;-69
2021/04/07 04:49:53;;;;;;;1999.90;999.90;;;0.90;99.90;;;;;;5056588;28;20462;-69
2021/04/07 04:52:20;;;;;;;1999.90;999.90;;;0.90;99.90;;;;;;5062165;28;20495;-69
2021/04/07 04:54:47;;;;;;;1999.90;999.90;;;0.90;99.90;;;;;;5064595;28;20106;-69
2021/04/07 04:57:13;;;;;;;1999.90;999.90;;;0.80;99.90;;;;;;5067761;28;20041;-68
2021/04/07 04:59:40;;;;;;;1999.90;999.90;;;0.80;99.90;;;;;;5068796;28;20044;-69
2021/04/07 05:02:06;;;;;;;1999.90;999.90;;;0.80;99.90;;;;;;5068625;28;20040;-68
2021/04/07 05:04:33;;;;;;;1999.90;999.90;;;0.80;99.90;;;;;;5069476;28;20055;-69
2021/04/07 05:06:59;;;;;;;1999.90;999.90;;;0.80;99.90;;;;;;5067963;28;20135;-68
2021/04/07 05:09:26;;;;;;;1999.90;999.90;;;0.80;99.90;;;;;;5070580;28;20048;-69
2021/04/07 05:11:52;;;;;;;1999.90;999.90;;;0.70;99.90;;;;;;5065416;28;20051;-68
2021/04/07 05:14:19;;;;;;;1999.90;999.90;;;0.80;99.90;;;;;;5068880;28;20052;-68
2021/04/07 05:16:45;;;;;;;1999.90;999.90;;;0.80;99.90;;;;;;5066266;28;20156;-68
2021/04/07 05:19:11;;;;;;;1999.90;999.90;;;0.80;99.90;;;;;;5069801;28;20511;-68
2021/04/07 05:21:38;;;;;;;1999.90;999.90;;;0.80;99.90;;;;;;5068059;28;20139;-68
2021/04/07 05:24:06;;;;;;;1999.90;999.90;;;0.80;99.90;;;;;;5067161;28;20055;-68
2021/04/07 05:26:34;;;;;;;1999.90;999.90;;;0.80;99.90;;;;;;5060568;28;20048;-68
2021/04/07 05:29:00;;;;;;;1999.90;999.90;;;0.80;99.90;;;;;;5062330;28;20062;-68
2021/04/07 05:31:26;;;;;;;1999.90;999.90;;;0.80;99.90;;;;;;5062354;28;20403;-68
2021/04/07 05:33:52;;;;;;;1999.90;999.90;;;0.90;99.90;;;;;;5057724;28;20104;-68
2021/04/07 05:36:19;;;;;;;1999.90;999.90;;;0.90;99.90;;;;;;5062527;28;20040;-68
2021/04/07 05:38:45;;;;;;;1999.90;999.90;;;0.80;99.90;;;;;;5057593;28;20081;-68
2021/04/07 05:41:11;;;;;;;1999.90;999.90;;;0.80;99.90;;;;;;5061054;28;20043;-68
2021/04/07 05:43:39;;;;;;;1999.90;999.90;;;0.80;99.90;;;;;;5067397;28;20123;-68
2021/04/07 05:46:07;;;;;;;1999.90;999.90;;;0.90;99.90;;;;;;5057787;28;20144;-68
2021/04/07 05:48:34;;;;;;;1999.90;999.90;;;0.90;99.90;;;;;;5063197;28;20406;-68
2021/04/07 05:51:02;;;;;;;1999.90;999.90;;;0.90;99.90;;;;;;5052379;28;20444;-67
2021/04/07 05:53:29;;;;;;;1999.90;999.90;;;0.90;99.90;;;;;;5063207;28;20504;-67
2021/04/07 05:55:57;;;;;;;1999.90;999.90;;;0.90;99.90;;;;;;5057408;28;20396;-67
2021/04/07 05:58:25;;;;;;;1999.90;999.90;;;1.00;99.90;;;;;;5059153;28;20457;-68
2021/04/07 06:00:52;;;;;;;1999.90;999.90;;;1.00;99.90;;;;;;5054660;28;20135;-68
2021/04/07 06:03:19;;;;;;;1999.90;999.90;;;1.10;99.90;;;;;;5060204;28;20049;-68
2021/04/07 06:05:48;;;;;;;1999.90;999.90;;;1.10;99.90;;;;;;5059565;28;20049;-67
2021/04/07 06:08:15;;;;;;;1999.90;999.90;;;1.10;99.90;;;;;;5061927;28;20464;-68
2021/04/07 06:10:43;;;;;;;1999.90;999.90;;;1.20;99.90;;;;;;5058631;28;20064;-68
2021/04/07 06:13:11;;;;;;;1999.90;999.90;;;1.20;99.40;;;;;;5064357;28;20147;-68
2021/04/07 06:15:38;;;;;;;1999.90;999.90;;;1.30;99.90;;;;;;5063795;28;20093;-68
2021/04/07 06:18:07;;;;;;;1999.90;999.90;;;1.40;99.80;;;;;;5064122;28;20056;-68
2021/04/07 06:20:41;;;;;;;1999.90;999.90;;;1.50;99.90;;;;;;5063815;28;20044;-68
2021/04/07 06:23:09;;;;;;;1999.90;999.90;;;1.70;99.90;;;;;;5064338;28;20105;-68
2021/04/07 06:25:36;;;;;;;1999.90;999.90;;;1.80;99.50;;;;;;5066991;28;20049;-68
2021/04/07 06:28:05;;;;;;;1999.90;999.90;;;1.90;99.90;;;;;;5063703;28;20055;-68
2021/04/07 06:30:48;;;;;;;1999.90;999.90;;;2.00;99.00;;;;;;5068984;28;20059;-68
2021/04/07 06:33:23;;;;;;;1999.90;999.90;;;2.10;99.90;;;;;;5063074;28;20139;-68
2021/04/07 06:36:04;;;;;;;1999.90;999.90;;;2.20;99.50;;;;;;5060358;28;20040;-68
2021/04/07 06:38:32;;;;;;;1999.90;999.90;;;2.30;99.90;;;;;;5064823;28;20051;-68
2021/04/07 06:40:58;;;;;;;1999.90;999.90;;;2.40;99.30;;;;;;5064606;28;20045;-68
2021/04/07 06:43:27;;;;;;;1999.90;999.90;;;2.50;98.80;;;;;;5064991;28;20041;-68
2021/04/07 06:45:54;;;;;;;;;;;2.60;99.10;;;;;;5063986;28;20144;-68
2021/04/07 06:48:20;;;;;;;1999.90;999.90;;;2.80;99.90;;;;;;5065116;28;19921;-68
2021/04/07 06:50:49;;;;;;;1999.90;999.90;;;2.80;99.90;;;;;;5065718;28;20095;-69
2021/04/07 06:53:17;;;;;;;1999.90;999.90;;;3.00;99.40;;;;;;5063360;28;20377;-68
2021/04/07 06:55:44;;;;;;;1999.90;999.90;;;3.10;99.90;;;;;;5063077;28;20064;-68
2021/04/07 06:58:11;;;;;;;1999.90;999.90;;;3.20;99.90;;;;;;5064494;28;20049;-68
2021/04/07 07:00:39;;;;;;;1999.90;999.90;;;3.20;99.10;;;;;;5065528;28;20051;-68
2021/04/07 07:03:14;;;;;;;1999.90;999.90;;;3.40;99.90;;;;;;5065145;28;20044;-68
2021/04/07 07:05:48;;;;;;;1999.90;999.90;;;3.40;99.90;;;;;;5064830;28;20052;-69
2021/04/07 07:08:19;;;;;;;1999.90;999.90;;;3.50;99.90;;;;;;5059945;28;20056;-69
2021/04/07 07:10:52;;;;;;;1999.90;999.90;;;3.50;99.90;;;;;;5062508;28;20071;-69
2021/04/07 07:13:21;;;;;;;1999.90;999.90;;;3.50;99.90;;;;;;5062574;28;20044;-71
2021/04/07 07:15:49;;;;;;;1999.90;999.90;;;3.60;99.90;;;;;;5061677;28;20364;-68
2021/04/07 07:18:26;;;;;;;1999.90;999.90;;;3.70;99.00;;;;;;5061817;28;20055;-69
2021/04/07 07:20:54;;;;;;;1999.90;999.90;;;3.80;99.60;;;;;;5061489;28;20048;-69
2021/04/07 07:23:31;;;;;;;1999.90;999.90;;;3.80;99.90;;;;;;5062561;28;20049;-68
2021/04/07 07:26:02;;;;;;;1999.90;999.90;;;3.90;99.90;;;;;;5082890;27;20048;-69
2021/04/07 07:28:50;;;;;;;1999.90;999.90;;;4.00;99.90;;;;;;5061355;28;20129;-69
2021/04/07 07:31:21;;;;;;;1999.90;999.90;;;4.00;99.60;;;;;;5066115;28;20052;-69
2021/04/07 07:33:48;;;;;;;1999.90;999.90;;;4.10;99.90;;;;;;5060897;28;20068;-69
2021/04/07 07:36:14;;;;;;;1999.90;999.90;;;4.10;99.70;;;;;;5060929;28;20131;-70
2021/04/07 07:38:45;;;;;;;1999.90;999.90;;;4.20;99.10;;;;;;5061036;28;20040;-69
2021/04/07 07:41:12;;;;;;;1999.90;999.90;;;4.20;98.90;;;;;;5062258;28;20045;-69
2021/04/07 07:43:41;;;;;;;1999.90;999.90;;;4.20;98.50;;;;;;5064301;28;20045;-69
2021/04/07 07:46:15;;;;;;;1999.90;999.90;;;4.20;98.90;;;;;;5061829;28;20058;-69
2021/04/07 07:48:44;;;;;;;1999.90;999.90;;;4.20;99.10;;;;;;5063272;28;20047;-69
2021/04/07 07:51:12;;;;;;;1999.90;999.90;;;4.20;99.40;;;;;;5065536;28;20128;-69
2021/04/07 07:53:38;;;;;;;1999.90;999.90;;;4.20;99.60;;;;;;5063640;28;20041;-69
2021/04/07 07:56:05;;;;;;;1999.90;999.90;;;4.20;99.30;;;;;;5062374;28;20044;-69
2021/04/07 07:58:31;;;;;;;1999.90;999.90;;;4.30;99.90;;;;;;5061854;28;20080;-69
2021/04/07 08:01:10;;;;;;;1999.90;999.90;;;4.40;99.90;;;;;;5060229;28;20231;-69
2021/04/07 08:03:37;;;;;;;1999.90;999.90;;;4.50;99.90;;;;;;5086496;27;20515;-69
2021/04/07 08:06:04;;;;;;;1999.90;999.90;;;4.60;99.90;;;;;;5062718;28;20051;-69
2021/04/07 08:08:47;;;;;;;1999.90;999.90;;;4.60;99.90;;;;;;5062132;28;20526;-69
2021/04/07 08:11:14;;;;;;;1999.90;999.90;;;4.60;99.90;;;;;;5060942;28;20055;-69
2021/04/07 08:13:44;;;;;;;1999.90;999.90;;;4.70;99.90;;;;;;5061737;28;20064;-69
2021/04/07 08:16:14;;;;;;;1999.90;999.90;;;4.70;99.90;;;;;;5057956;28;20049;-69
2021/04/07 08:18:41;;;;;;;1999.90;999.90;;;4.80;99.90;;;;;;5057206;28;20049;-69
2021/04/07 08:21:08;;;;;;;1999.90;999.90;;;4.80;99.90;;;;;;5060639;28;20051;-68
2021/04/07 08:23:36;;;;;;;1999.90;999.90;;;4.80;99.90;;;;;;5060638;28;20045;-69
2021/04/07 08:26:04;;;;;;;1999.90;999.90;;;4.90;99.90;;;;;;5060207;28;20052;-69
2021/04/07 08:28:32;;;;;;;1999.90;999.90;;;4.90;99.90;;;;;;5058769;28;20052;-69
2021/04/07 08:30:58;;;;;;;1999.90;999.90;;;5.00;99.90;;;;;;5062536;28;20140;-69
2021/04/07 08:33:25;;;;;;;1999.90;999.90;;;5.10;99.90;;;;;;5062594;28;20344;-69
2021/04/07 08:35:52;;;;;;;1999.90;999.90;;;5.20;99.90;;;;;;5060853;28;20055;-69
2021/04/07 08:38:33;;;;;;;1999.90;999.90;;;5.30;99.90;;;;;;5059975;28;20494;-70
2021/04/07 08:41:19;;;;;;;1999.90;999.90;;;5.40;99.90;;;;;;5059029;28;20051;-69
2021/04/07 08:43:46;;;;;;;1999.90;999.90;;;5.50;99.90;;;;;;5055994;28;20145;-69
2021/04/07 08:46:15;;;;;;;1999.90;999.90;;;5.60;99.90;;;;;;5058364;28;20051;-69
2021/04/07 08:48:42;;;;;;;1999.90;999.90;;;5.70;99.90;;;;;;5057781;28;20060;-69
2021/04/07 08:51:12;;;;;;;1999.90;999.90;;;5.80;99.90;;;;;;5061431;28;20052;-69
2021/04/07 08:53:44;;;;;;;1999.90;999.90;;;5.80;99.90;;;;;;5061272;28;20446;-70
2021/04/07 08:56:12;;;;;;;1999.90;999.90;;;5.90;99.90;;;;;;5053074;28;20135;-69
2021/04/07 08:58:55;;;;;;;1999.90;999.90;;;6.00;99.90;;;;;;5059120;28;20238;-70
2021/04/07 09:01:31;;;;;;;1999.90;999.90;;;6.10;99.90;;;;;;5061612;28;20036;-70
2021/04/07 09:04:10;;;;;;;1999.90;999.90;;;6.10;99.90;;;;;;5058980;28;20162;-70
2021/04/07 09:06:59;;;;;;;1999.90;999.90;;;6.10;99.90;;;;;;5059715;28;20505;-69
2021/04/07 09:09:25;;;;;;;;;;;5.90;99.90;;;;;;5059974;28;20045;-70
2021/04/07 09:11:52;;;;;;;1999.90;999.90;;;5.80;99.90;;;;;;5059487;28;19920;-69
2021/04/07 09:14:20;;;;;;;1999.90;999.90;;;5.70;99.90;;;;;;5061326;28;20563;-69
2021/04/07 09:16:47;;;;;;;1999.90;999.90;;;5.70;99.90;;;;;;5057493;28;20044;-69
2021/04/07 09:19:16;;;;;;;1999.90;999.90;;;5.80;99.90;;;;;;5055621;28;20094;-70
2021/04/07 09:21:55;;;;;;;;;;;5.90;99.90;;;;;;5057712;28;20151;-69
2021/04/07 09:24:26;;;;;;;1999.90;999.90;;;6.00;99.90;;;;;;5057135;28;19921;-69
2021/04/07 09:26:57;;;;;;;1999.90;999.90;;;6.10;99.90;;;;;;5059141;28;20106;-69
2021/04/07 09:29:23;;;;;;;1999.90;999.90;;;6.00;99.90;;;;;;5057783;28;20468;-69
2021/04/07 09:31:51;;;;;;;1999.90;999.90;;;5.90;99.90;;;;;;5057139;28;20049;-69
2021/04/07 09:34:18;;;;;;;1999.90;999.90;;;5.90;99.90;;;;;;5061618;28;20068;-69
2021/04/07 09:36:46;;;;;;;1999.90;999.90;;;6.00;99.90;;;;;;5057497;28;20053;-69
2021/04/07 09:39:15;;;;;;;1999.90;999.90;;;6.20;99.90;;;;;;5061025;28;20033;-69
2021/04/07 09:41:45;;;;;;;1999.90;999.90;;;6.50;99.90;;;;;;5059511;28;20472;-69
2021/04/07 09:44:13;;;;;;;1999.90;999.90;;;6.60;99.90;;;;;;5055048;28;20060;-69
2021/04/07 09:46:40;;;;;;;1999.90;999.90;;;6.60;99.90;;;;;;5056323;28;20374;-69
2021/04/07 09:49:12;;;;;;;1999.90;999.90;;;6.60;99.90;;;;;;5061380;28;20052;-69
2021/04/07 09:51:44;;;;;;;1999.90;999.90;;;6.50;99.90;;;;;;5058454;28;20051;-70
2021/04/07 09:54:25;;;;;;;1999.90;999.90;;;6.50;99.90;;;;;;5059363;28;20063;-70
2021/04/07 09:56:51;;;;;;;1999.90;999.90;;;6.50;99.90;;;;;;5058819;28;20052;-69
2021/04/07 09:59:18;;;;;;;1999.90;999.90;;;6.50;99.90;;;;;;5060642;28;20498;-69
2021/04/07 10:01:44;;;;;;;1999.90;999.90;;;6.50;99.90;;;;;;5060330;28;20044;-69
2021/04/07 10:04:11;;;;;;;1999.90;999.90;;;6.60;99.90;;;;;;5059985;28;20063;-69
2021/04/07 10:06:38;;;;;;;1999.90;999.90;;;6.70;99.90;;;;;;5059211;28;20050;-69
2021/04/07 10:09:07;;;;;;;1999.90;999.90;;;6.90;99.90;;;;;;5059548;28;20053;-69
2021/04/07 10:11:41;;;;;;;1999.90;999.90;;;7.20;99.90;;;;;;5063096;28;20056;-70
2021/04/07 10:14:08;;;;;;;1999.90;999.90;;;7.30;99.90;;;;;;5064177;28;20056;-70
2021/04/07 10:16:40;;;;;;;1999.90;999.90;;;7.30;99.90;;;;;;5063793;28;20480;-69
2021/04/07 10:19:11;;;;;;;1999.90;999.90;;;7.50;99.90;;;;;;5061421;28;20345;-70
2021/04/07 10:21:43;;;;;;;1999.90;999.90;;;7.80;99.90;;;;;;5065795;28;20053;-69
2021/04/07 10:24:15;;;;;;;1999.90;999.90;;;8.20;99.90;;;;;;5064359;28;20067;-70
2021/04/07 10:26:42;;;;;;;1999.90;999.90;;;8.30;99.90;;;;;;5061237;28;20062;-69
2021/04/07 10:29:19;;;;;;;1999.90;999.90;;;8.20;99.90;;;;;;5064057;28;20075;-70
2021/04/07 10:31:53;;;;;;;1999.90;999.90;;;8.00;99.90;;;;;;5063451;28;20052;-70
2021/04/07 10:34:34;;;;;;;1999.90;999.90;;;7.60;99.30;;;;;;5063233;28;20492;-69
2021/04/07 10:37:02;;;;;;;1999.90;999.90;;;7.40;99.90;;;;;;5057998;28;20052;-70
2021/04/07 10:39:37;;;;;;;1999.90;999.90;;;7.30;99.90;;;;;;5066184;28;20048;-69
2021/04/07 10:42:04;;;;;;;1999.90;999.90;;;7.20;99.90;;;;;;5061437;28;20049;-69
2021/04/07 10:44:32;;;;;;;1999.90;999.90;;;7.10;99.90;;;;;;5063144;28;20068;-69
2021/04/07 10:46:58;;;;;;;1999.90;999.90;;;6.90;99.90;;;;;;5059411;28;20064;-69
2021/04/07 10:49:26;;;;;;;1999.90;999.90;;;6.60;99.90;;;;;;5057398;28;20113;-69
2021/04/07 10:52:06;;;;;;;1999.90;999.90;;;6.30;99.90;;;;;;5066781;28;20483;-69
2021/04/07 10:54:33;;;;;;;1999.90;999.90;;;6.20;99.90;;;;;;5063063;28;20052;-69
2021/04/07 10:57:11;;;;;;;1999.90;999.90;;;6.10;99.50;;;;;;5063647;28;20135;-69
2021/04/07 10:59:38;;;;;;;1999.90;999.90;;;6.10;99.00;;;;;;5058812;28;20055;-70
2021/04/07 11:02:14;;;;;;;1999.90;999.90;;;6.10;98.90;;;;;;5060129;28;20040;-69
2021/04/07 11:04:40;;;;;;;1999.90;999.90;;;6.30;98.70;;;;;;5065842;28;20090;-70
2021/04/07 11:07:11;;;;;;;1999.90;999.90;;;6.40;99.40;;;;;;5061093;28;20468;-70
2021/04/07 11:09:49;;;;;;;1999.90;999.90;;;6.60;99.80;;;;;;5064239;28;20445;-69
2021/04/07 11:12:17;;;;;;;1999.90;999.90;;;6.80;99.50;;;;;;5062558;28;20063;-71
2021/04/07 11:14:50;;;;;;;1999.90;999.90;;;6.90;99.80;;;;;;5063183;28;20058;-70
2021/04/07 11:17:19;;;;;;;1999.90;999.90;;;7.00;99.60;;;;;;5064779;28;20142;-70
2021/04/07 11:19:46;;;;;;;;;;;7.00;99.80;;;;;;5060504;28;20170;-70
2021/04/07 11:22:12;;;;;;;1999.90;999.90;;;6.90;98.50;;;;;;5065898;28;20019;-69
2021/04/07 11:24:39;;;;;;;1999.90;999.90;;;6.80;98.80;;;;;;5060090;28;20149;-69
2021/04/07 11:27:09;;;;;;;1999.90;999.90;;;6.80;99.10;;;;;;5063589;28;20087;-70
2021/04/07 11:29:36;;;;;;;1999.90;999.90;;;7.00;99.30;;;;;;5061636;28;20136;-70
2021/04/07 11:32:05;;;;;;;1999.90;999.90;;;7.00;98.90;;;;;;5063626;28;20048;-70
2021/04/07 11:35:02;;;;;;;1999.90;999.90;;;7.00;98.80;;;;;;5059845;28;20071;-70
2021/04/07 11:46:08;;;;;;;1999.90;999.90;;;7.50;99.90;;;;;;5054087;28;20142;-70
2021/04/07 11:48:40;;;;;;;1999.90;999.90;;;7.70;99.90;;;;;;5060315;28;20055;-70
2021/04/07 11:51:08;;;;;;;1999.90;999.90;;;7.80;99.90;;;;;;5063282;28;20129;-70
2021/04/07 11:53:34;;;;;;;1999.90;999.90;;;7.90;99.90;;;;;;5060347;28;20040;-70
2021/04/07 11:56:01;;;;;;;1999.90;999.90;;;7.80;99.30;;;;;;5056736;28;20052;-69
2021/04/07 11:58:27;;;;;;;1999.90;999.90;;;7.80;98.70;;;;;;5059540;28;20053;-70
2021/04/07 12:00:53;;;;;;;1999.90;999.90;;;7.70;97.20;;;;;;5053449;28;20044;-70
2021/04/07 12:03:20;;;;;;;1999.90;999.90;;;7.70;98.70;;;;;;5061204;28;20045;-70
2021/04/07 12:05:46;;;;;;;1999.90;999.90;;;7.70;98.10;;;;;;5056512;28;20051;-70
2021/04/07 12:08:14;;;;;;;1999.90;999.90;;;7.80;98.10;;;;;;5059556;28;21148;-71
2021/04/07 12:10:40;;;;;;;1999.90;999.90;;;8.00;97.90;;;;;;5062139;28;20080;-70
2021/04/07 12:13:07;;;;;;;1999.90;999.90;;;8.20;97.80;;;;;;5056532;28;20053;-70
2021/04/07 12:15:33;;;;;;;1999.90;999.90;;;8.40;97.40;;;;;;5061199;28;20064;-70
2021/04/07 12:17:59;;;;;;;1999.90;999.90;;;8.50;97.50;;;;;;5060323;28;20060;-70
2021/04/07 12:20:25;;;;;;;1999.90;999.90;;;8.60;98.10;;;;;;5062600;28;20143;-70
2021/04/07 12:22:53;;;;;;;1999.90;999.90;;;8.50;97.20;;;;;;5057858;28;20433;-70
2021/04/07 12:25:22;;;;;;;1999.90;999.90;;;8.30;96.40;;;;;;5060668;28;21053;-70